Bixby, Oklahoma
Current Conditions -  °F | °C
As of 7:53 AM on Friday 24 Oct 2014 (Local Time) from KRVS Reporting Station
Clear Clear  
Wind Chill: 58°   Ceiling: Unl
Heat Index: 58°   Visibility: 10mi
Dew Point: 53°   Wind: 6mph
Humidity: 84%   Direction: 190°S
Pressure: 30.11"   Gusts: NA
Location:  35.94°N, 95.88°W
Report Text: KRVS 241253Z 19005KT 10SM CLR 14/12 A3011 RMK AO2 SLP205 T01440117
Loading
Personal Weather Stations






























Interactive Weather Map
Tropical Storm Tracking
New forecast layout! Learn more

10-Day Weather Forecast

Advertisements
Track Severe Weather on mobile